createdAt,value
2022-12-15T00:00:53.953Z,0.00
2022-12-15T00:01:53.866Z,0.00
2022-12-15T00:02:53.958Z,0.00
2022-12-15T00:03:53.865Z,0.00
2022-12-15T00:04:53.763Z,0.00
2022-12-15T00:05:53.735Z,0.00
2022-12-15T00:06:53.765Z,0.00
2022-12-15T00:07:53.677Z,0.00
2022-12-15T00:08:53.646Z,0.00
2022-12-15T00:09:53.609Z,0.00
2022-12-15T00:10:53.588Z,0.00
2022-12-15T00:11:53.560Z,0.00
2022-12-15T00:12:53.530Z,0.00
2022-12-15T00:13:53.513Z,0.00
2022-12-15T00:14:53.471Z,0.00
2022-12-15T00:15:53.490Z,0.00
2022-12-15T00:16:53.409Z,0.00
2022-12-15T00:17:53.382Z,0.00
2022-12-15T00:18:53.368Z,0.00
2022-12-15T00:19:53.316Z,0.00
2022-12-15T00:20:53.292Z,0.00
2022-12-15T00:21:53.273Z,0.00
2022-12-15T00:22:53.235Z,0.00
2022-12-15T00:23:53.203Z,0.00
2022-12-15T00:24:53.178Z,0.00
2022-12-15T00:25:53.143Z,0.00
2022-12-15T00:26:53.121Z,0.00
2022-12-15T00:27:53.088Z,0.00
2022-12-15T00:28:53.058Z,0.00
2022-12-15T00:29:53.025Z,0.00
2022-12-15T00:30:56.198Z,0.00
2022-12-15T00:31:53.010Z,0.00
2022-12-15T00:32:52.941Z,0.00
2022-12-15T00:33:52.917Z,0.00
2022-12-15T00:34:52.885Z,0.00
2022-12-15T00:35:52.854Z,0.00
2022-12-15T00:36:52.826Z,0.00
2022-12-15T00:37:52.787Z,0.00
2022-12-15T00:38:52.770Z,0.00
2022-12-15T00:39:52.743Z,0.00
2022-12-15T00:40:52.710Z,0.00
2022-12-15T00:41:52.687Z,0.00
2022-12-15T00:42:52.697Z,0.00
2022-12-15T00:43:52.634Z,0.00
2022-12-15T00:44:52.592Z,0.00
2022-12-15T00:45:52.565Z,0.00
2022-12-15T00:46:52.681Z,0.00
2022-12-15T00:47:52.506Z,0.00
2022-12-15T00:48:52.494Z,0.00
2022-12-15T00:49:52.518Z,0.00
2022-12-15T00:50:52.424Z,0.00
2022-12-15T00:51:52.409Z,0.00
2022-12-15T00:52:52.362Z,0.00
2022-12-15T00:53:52.333Z,0.00
2022-12-15T00:54:52.302Z,0.00
2022-12-15T00:55:52.277Z,0.00
2022-12-15T00:56:52.258Z,0.00
2022-12-15T00:57:52.230Z,0.00
2022-12-15T00:58:52.187Z,0.00
2022-12-15T00:59:52.164Z,0.00
2022-12-15T01:00:52.134Z,0.00
2022-12-15T01:01:52.248Z,0.00
2022-12-15T01:02:52.294Z,0.00
2022-12-15T01:03:52.115Z,0.00
2022-12-15T01:04:52.016Z,0.00
2022-12-15T01:05:52.030Z,0.00
2022-12-15T01:06:51.953Z,0.00
2022-12-15T01:07:51.939Z,0.00
2022-12-15T01:08:51.892Z,0.00
2022-12-15T01:09:51.857Z,0.00
2022-12-15T01:10:51.841Z,0.00
2022-12-15T01:11:51.810Z,0.00
2022-12-15T01:12:51.775Z,0.00
2022-12-15T01:13:51.750Z,0.00
2022-12-15T01:14:51.720Z,0.00
2022-12-15T01:15:51.716Z,0.00
2022-12-15T01:16:51.665Z,0.00
2022-12-15T01:17:51.641Z,0.00
2022-12-15T01:18:51.599Z,0.00
2022-12-15T01:19:51.582Z,0.00
2022-12-15T01:20:51.547Z,0.00
2022-12-15T01:21:51.520Z,0.00
2022-12-15T01:22:51.489Z,0.00
2022-12-15T01:23:51.460Z,0.00
2022-12-15T01:24:51.433Z,0.00
2022-12-15T01:25:51.417Z,0.00
2022-12-15T01:26:51.393Z,0.00
2022-12-15T01:27:51.352Z,0.00
2022-12-15T01:28:51.331Z,0.00
2022-12-15T01:29:51.303Z,0.00
2022-12-15T01:30:51.278Z,0.00
2022-12-15T01:31:51.308Z,0.00
2022-12-15T01:32:51.192Z,0.00
2022-12-15T01:33:51.169Z,0.00
2022-12-15T01:34:51.144Z,0.00
2022-12-15T01:35:58.754Z,0.00
2022-12-15T01:36:51.088Z,0.00
2022-12-15T01:37:51.154Z,0.00
2022-12-15T01:38:54.328Z,0.00
2022-12-15T01:39:50.997Z,0.00
2022-12-15T01:40:50.966Z,0.00
2022-12-15T01:41:50.938Z,0.00
2022-12-15T01:42:50.913Z,0.00
2022-12-15T01:43:50.889Z,0.00
2022-12-15T01:44:50.877Z,0.00
2022-12-15T01:45:50.824Z,0.00
2022-12-15T01:46:50.894Z,0.00
2022-12-15T01:47:50.774Z,0.00
2022-12-15T01:48:50.755Z,0.00
2022-12-15T01:49:50.708Z,0.00
2022-12-15T01:50:50.691Z,0.00
2022-12-15T01:51:50.653Z,0.00
2022-12-15T01:52:50.633Z,0.00
2022-12-15T01:53:50.606Z,0.00
2022-12-15T01:54:50.605Z,0.00
2022-12-15T01:55:50.541Z,0.00
2022-12-15T01:56:50.510Z,0.00
2022-12-15T01:57:50.477Z,0.00
2022-12-15T01:58:50.440Z,0.00
2022-12-15T01:59:50.434Z,0.00
2022-12-15T02:00:50.451Z,0.00
2022-12-15T02:01:50.575Z,0.00
2022-12-15T02:02:50.426Z,0.00
2022-12-15T02:03:50.304Z,0.00
2022-12-15T02:04:50.274Z,0.00
2022-12-15T02:05:50.244Z,0.00
2022-12-15T02:06:50.218Z,0.00
2022-12-15T02:07:50.189Z,0.00
2022-12-15T02:08:50.182Z,0.00
2022-12-15T02:09:50.475Z,0.00
2022-12-15T02:10:50.113Z,0.00
2022-12-15T02:11:50.069Z,0.00
2022-12-15T02:12:50.042Z,0.00
2022-12-15T02:13:50.013Z,0.00
2022-12-15T02:14:49.990Z,0.00
2022-12-15T02:15:50.090Z,0.00
2022-12-15T02:16:50.029Z,0.00
2022-12-15T02:17:49.901Z,0.00
2022-12-15T02:18:49.873Z,0.00
2022-12-15T02:19:49.839Z,0.00
2022-12-15T02:20:49.808Z,0.00
2022-12-15T02:21:49.784Z,0.00
2022-12-15T02:22:49.773Z,0.00
2022-12-15T02:23:49.752Z,0.00
2022-12-15T02:24:49.924Z,0.00
2022-12-15T02:25:50.610Z,0.00
2022-12-15T02:26:49.634Z,0.00
2022-12-15T02:27:49.619Z,0.00
2022-12-15T02:28:49.587Z,0.00
2022-12-15T02:29:49.578Z,0.00
2022-12-15T02:30:49.521Z,0.00
2022-12-15T02:31:49.711Z,0.00
2022-12-15T02:32:49.461Z,0.00
2022-12-15T02:33:49.440Z,0.00
2022-12-15T02:34:49.406Z,0.00
2022-12-15T02:35:49.376Z,0.00
2022-12-15T02:36:49.345Z,0.00
2022-12-15T02:37:49.850Z,0.00
2022-12-15T02:38:49.302Z,0.00
2022-12-15T02:39:49.258Z,0.00
2022-12-15T02:40:49.243Z,0.00
2022-12-15T02:41:49.217Z,0.00
2022-12-15T02:42:49.192Z,0.00
2022-12-15T02:43:49.929Z,0.00
2022-12-15T02:44:49.143Z,0.00
2022-12-15T02:45:49.120Z,0.00
2022-12-15T02:46:49.055Z,0.00
2022-12-15T02:47:49.058Z,0.00
2022-12-15T02:48:49.008Z,0.00
2022-12-15T02:49:49.894Z,0.00
2022-12-15T02:50:48.942Z,0.00
2022-12-15T02:51:48.921Z,0.00
2022-12-15T02:52:48.888Z,0.00
2022-12-15T02:53:48.866Z,0.00
2022-12-15T02:54:48.850Z,0.00
2022-12-15T02:55:50.257Z,0.00
2022-12-15T02:56:48.821Z,0.00
2022-12-15T02:57:48.743Z,0.00
2022-12-15T02:58:48.715Z,0.00
2022-12-15T02:59:48.684Z,0.00
2022-12-15T03:00:48.721Z,0.00
2022-12-15T03:01:48.763Z,0.00
2022-12-15T03:02:48.723Z,0.00
2022-12-15T03:03:48.562Z,0.00
2022-12-15T03:04:48.539Z,0.00
2022-12-15T03:05:48.568Z,0.00
2022-12-15T03:06:48.476Z,0.00
2022-12-15T03:07:49.855Z,0.00
2022-12-15T03:08:48.419Z,0.00
2022-12-15T03:09:48.391Z,0.00
2022-12-15T03:10:48.360Z,0.00
2022-12-15T03:11:48.337Z,0.00
2022-12-15T03:12:48.299Z,0.00
2022-12-15T03:13:49.756Z,0.00
2022-12-15T03:14:48.243Z,0.00
2022-12-15T03:15:48.221Z,0.00
2022-12-15T03:16:48.339Z,0.00
2022-12-15T03:17:48.158Z,0.00
2022-12-15T03:18:48.126Z,0.00
2022-12-15T03:19:49.712Z,0.00
2022-12-15T03:20:48.067Z,0.00
2022-12-15T03:21:48.042Z,0.00
2022-12-15T03:22:48.007Z,0.00
2022-12-15T03:23:47.982Z,0.00
2022-12-15T03:24:47.949Z,0.00
2022-12-15T03:25:49.719Z,0.00
2022-12-15T03:26:47.902Z,0.00
2022-12-15T03:27:47.911Z,0.00
2022-12-15T03:28:47.828Z,0.00
2022-12-15T03:29:47.806Z,0.00
2022-12-15T03:30:50.548Z,0.00
2022-12-15T03:31:49.867Z,0.00
2022-12-15T03:32:47.715Z,0.00
2022-12-15T03:33:47.688Z,0.00
2022-12-15T03:34:47.649Z,0.00
2022-12-15T03:35:47.635Z,0.00
2022-12-15T03:36:47.609Z,0.00
2022-12-15T03:37:47.565Z,0.00
2022-12-15T03:38:47.557Z,0.00
2022-12-15T03:39:47.510Z,0.00
2022-12-15T03:40:47.471Z,0.00
2022-12-15T03:41:47.453Z,0.00
2022-12-15T03:42:47.420Z,0.00
2022-12-15T03:43:49.531Z,0.00
2022-12-15T03:44:47.354Z,0.00
2022-12-15T03:45:47.406Z,0.00
2022-12-15T03:46:47.301Z,0.00
2022-12-15T03:47:47.275Z,0.00
2022-12-15T03:48:47.238Z,0.00
2022-12-15T03:49:47.211Z,0.00
2022-12-15T03:50:47.176Z,0.00
2022-12-15T03:51:47.150Z,0.00
2022-12-15T03:52:47.119Z,0.00
2022-12-15T03:53:47.094Z,0.00
2022-12-15T03:54:47.058Z,0.00
2022-12-15T03:55:47.034Z,0.00
2022-12-15T03:56:47.000Z,0.00
2022-12-15T03:57:46.978Z,0.00
2022-12-15T03:58:46.949Z,0.00
2022-12-15T03:59:46.914Z,0.00
2022-12-15T04:00:46.892Z,0.00
2022-12-15T04:01:47.039Z,0.00
2022-12-15T04:02:46.876Z,0.00
2022-12-15T04:03:46.858Z,0.00
2022-12-15T04:04:46.777Z,0.00
2022-12-15T04:05:46.741Z,0.00
2022-12-15T04:06:46.714Z,0.00
2022-12-15T04:07:46.674Z,0.00
2022-12-15T04:08:46.643Z,0.00
2022-12-15T04:09:46.621Z,0.00
2022-12-15T04:10:46.592Z,0.00
2022-12-15T04:11:46.555Z,0.00
2022-12-15T04:12:46.527Z,0.00
2022-12-15T04:13:46.491Z,0.00
2022-12-15T04:14:46.467Z,0.00
2022-12-15T04:15:46.443Z,0.00
2022-12-15T04:16:46.431Z,0.00
2022-12-15T04:17:46.378Z,0.00
2022-12-15T04:18:46.335Z,0.00
2022-12-15T04:19:46.313Z,0.00
2022-12-15T04:20:46.282Z,0.00
2022-12-15T04:21:46.250Z,0.00
2022-12-15T04:22:46.232Z,0.00
2022-12-15T04:23:46.191Z,0.00
2022-12-15T04:24:46.169Z,0.00
2022-12-15T04:25:46.128Z,0.00
2022-12-15T04:26:46.090Z,0.00
2022-12-15T04:27:46.073Z,0.00
2022-12-15T04:28:46.041Z,0.00
2022-12-15T04:29:46.007Z,0.00
2022-12-15T04:30:46.020Z,0.00
2022-12-15T04:31:45.948Z,0.00
2022-12-15T04:32:49.823Z,0.00
2022-12-15T04:33:45.883Z,0.00
2022-12-15T04:34:45.862Z,0.00
2022-12-15T04:35:45.822Z,0.00
2022-12-15T04:36:45.791Z,0.00
2022-12-15T04:37:45.762Z,0.00
2022-12-15T04:38:49.898Z,0.00
2022-12-15T04:39:45.747Z,0.00
2022-12-15T04:40:45.667Z,0.00
2022-12-15T04:41:45.643Z,0.00
2022-12-15T04:42:45.602Z,0.00
2022-12-15T04:43:45.582Z,0.00
2022-12-15T04:44:45.546Z,0.00
2022-12-15T04:45:45.588Z,0.00
2022-12-15T04:46:45.497Z,0.00
2022-12-15T04:47:45.461Z,0.00
2022-12-15T04:48:45.428Z,0.00
2022-12-15T04:49:45.403Z,0.00
2022-12-15T04:50:45.360Z,0.00
2022-12-15T04:51:45.346Z,0.00
2022-12-15T04:52:45.304Z,0.00
2022-12-15T04:53:45.279Z,0.00
2022-12-15T04:54:45.248Z,0.00
2022-12-15T04:55:45.217Z,0.00
2022-12-15T04:56:45.186Z,0.00
2022-12-15T04:57:45.162Z,0.00
2022-12-15T04:58:45.134Z,0.00
2022-12-15T04:59:45.097Z,0.00
2022-12-15T05:00:45.070Z,0.00
2022-12-15T05:01:45.117Z,0.00
2022-12-15T05:02:45.121Z,0.00
2022-12-15T05:03:44.976Z,0.00
2022-12-15T05:04:45.040Z,0.00
2022-12-15T05:05:44.927Z,0.00
2022-12-15T05:06:44.891Z,0.00
2022-12-15T05:07:44.861Z,0.00
2022-12-15T05:08:44.828Z,0.00
2022-12-15T05:09:44.791Z,0.00
2022-12-15T05:10:44.763Z,0.00
2022-12-15T05:11:44.732Z,0.00
2022-12-15T05:12:44.712Z,0.00
2022-12-15T05:13:44.669Z,0.00
2022-12-15T05:14:44.640Z,0.00
2022-12-15T05:15:44.652Z,0.00
2022-12-15T05:16:44.648Z,0.00
2022-12-15T05:17:44.626Z,0.00
2022-12-15T05:18:44.533Z,0.00
2022-12-15T05:19:44.497Z,0.00
2022-12-15T05:20:44.467Z,0.00
2022-12-15T05:21:44.446Z,0.00
2022-12-15T05:22:44.400Z,0.00
2022-12-15T05:23:44.387Z,0.00
2022-12-15T05:24:44.345Z,0.00
2022-12-15T05:25:44.313Z,0.00
2022-12-15T05:26:47.779Z,0.00
2022-12-15T05:27:44.281Z,0.00
2022-12-15T05:28:44.228Z,0.00
2022-12-15T05:29:44.188Z,0.00
2022-12-15T05:30:44.187Z,0.00
2022-12-15T05:31:44.133Z,0.00
2022-12-15T05:32:44.102Z,0.00
2022-12-15T05:33:44.087Z,0.00
2022-12-15T05:34:44.053Z,0.00
2022-12-15T05:35:44.007Z,0.00
2022-12-15T05:36:43.982Z,0.00
2022-12-15T05:37:43.951Z,0.00
2022-12-15T05:38:43.929Z,0.00
2022-12-15T05:39:43.891Z,0.00
2022-12-15T05:40:43.860Z,0.00
2022-12-15T05:41:43.831Z,0.00
2022-12-15T05:42:43.802Z,0.00
2022-12-15T05:43:43.774Z,0.00
2022-12-15T05:44:43.741Z,0.00
2022-12-15T05:45:43.711Z,0.00
2022-12-15T05:46:43.739Z,0.00
2022-12-15T05:47:43.652Z,0.00
2022-12-15T05:49:43.587Z,0.00
2022-12-15T05:50:43.576Z,0.00
2022-12-15T05:51:43.526Z,0.00
2022-12-15T05:52:47.656Z,0.00
2022-12-15T05:53:43.558Z,0.00
2022-12-15T05:54:43.441Z,0.00
2022-12-15T05:55:43.421Z,0.00
2022-12-15T05:56:43.382Z,0.00
2022-12-15T05:57:43.351Z,0.00
2022-12-15T05:58:45.683Z,0.00
2022-12-15T05:59:43.292Z,0.00
2022-12-15T06:00:43.259Z,0.00
2022-12-15T06:01:43.373Z,0.00
2022-12-15T06:02:43.224Z,0.00
2022-12-15T06:03:43.165Z,0.00
2022-12-15T06:04:43.182Z,0.00
2022-12-15T06:05:43.095Z,0.00
2022-12-15T06:06:43.073Z,0.00
2022-12-15T06:07:43.033Z,0.00
2022-12-15T06:08:43.034Z,0.00
2022-12-15T06:09:43.007Z,0.00
2022-12-15T06:10:42.948Z,0.00
2022-12-15T06:11:42.930Z,0.00
2022-12-15T06:12:42.893Z,0.00
2022-12-15T06:13:42.856Z,0.00
2022-12-15T06:14:42.824Z,0.00
2022-12-15T06:15:42.856Z,0.00
2022-12-15T06:16:50.791Z,0.00
2022-12-15T06:17:42.741Z,0.00
2022-12-15T06:18:42.730Z,0.00
2022-12-15T06:19:42.674Z,0.00
2022-12-15T06:20:42.643Z,0.00
2022-12-15T06:21:42.604Z,0.00
2022-12-15T06:22:48.156Z,0.00
2022-12-15T06:23:42.557Z,0.00
2022-12-15T06:24:42.522Z,0.00
2022-12-15T06:25:42.502Z,0.00
2022-12-15T06:26:42.471Z,0.00
2022-12-15T06:27:42.416Z,0.00
2022-12-15T06:28:42.398Z,0.00
2022-12-15T06:29:42.404Z,0.00
2022-12-15T06:30:42.348Z,0.00
2022-12-15T06:31:42.337Z,0.00
2022-12-15T06:32:42.293Z,0.00
2022-12-15T06:33:42.245Z,0.00
2022-12-15T06:34:42.209Z,0.00
2022-12-15T06:35:42.171Z,0.00
2022-12-15T06:36:42.148Z,0.00
2022-12-15T06:37:42.116Z,0.00
2022-12-15T06:38:42.090Z,0.00
2022-12-15T06:39:42.053Z,0.00
2022-12-15T06:40:42.054Z,4.00
2022-12-15T06:41:42.060Z,0.00
2022-12-15T06:42:42.013Z,0.00
2022-12-15T06:43:41.985Z,4.00
2022-12-15T06:44:41.906Z,0.00
2022-12-15T06:45:41.874Z,4.00
2022-12-15T06:46:41.873Z,4.00
2022-12-15T06:47:41.810Z,8.00
2022-12-15T06:48:41.841Z,8.00
2022-12-15T06:49:41.780Z,8.00
2022-12-15T06:50:41.785Z,8.00
2022-12-15T06:51:41.762Z,12.00
2022-12-15T06:54:35.054Z,16.00
2022-12-15T06:55:35.027Z,20.00
2022-12-15T06:56:42.530Z,24.00
2022-12-15T06:58:28.329Z,32.00
2022-12-15T06:59:28.589Z,36.00
2022-12-15T07:01:28.358Z,48.00
2022-12-15T07:02:29.271Z,56.00
2022-12-15T07:03:28.388Z,60.00
2022-12-15T07:04:28.184Z,68.00
2022-12-15T07:05:28.119Z,76.00
2022-12-15T07:06:28.049Z,88.00
2022-12-15T07:07:28.097Z,96.00
2022-12-15T07:08:32.237Z,108.00
2022-12-15T07:09:27.984Z,120.00
2022-12-15T07:10:27.925Z,132.00
2022-12-15T07:11:27.976Z,140.00
2022-12-15T07:12:27.914Z,156.00
2022-12-15T07:13:27.991Z,168.00
2022-12-15T07:14:27.801Z,184.00
2022-12-15T07:15:27.758Z,196.00
2022-12-15T07:16:27.812Z,212.00
2022-12-15T07:17:27.717Z,228.00
2022-12-15T07:18:27.667Z,244.00
2022-12-15T07:19:27.638Z,260.00
2022-12-15T07:20:29.011Z,276.00
2022-12-15T07:21:27.574Z,296.00
2022-12-15T07:22:27.564Z,312.00
2022-12-15T07:23:52.847Z,328.00
2022-12-15T07:24:27.614Z,348.00
2022-12-15T07:25:27.451Z,368.00
2022-12-15T07:26:27.441Z,388.00
2022-12-15T07:27:27.384Z,408.00
2022-12-15T07:28:27.373Z,428.00
2022-12-15T07:29:27.318Z,448.00
2022-12-15T07:30:27.311Z,472.00
2022-12-15T07:31:27.409Z,492.00
2022-12-15T07:32:27.226Z,508.00
2022-12-15T07:33:27.230Z,528.00
2022-12-15T07:34:27.164Z,552.00
2022-12-15T07:35:27.148Z,572.00
2022-12-15T07:36:27.099Z,596.00
2022-12-15T07:37:27.072Z,620.00
2022-12-15T07:38:27.042Z,636.00
2022-12-15T07:39:27.009Z,668.00
2022-12-15T07:40:27.072Z,708.00
2022-12-15T07:41:26.954Z,748.00
2022-12-15T07:42:26.915Z,788.00
2022-12-15T07:46:20.328Z,900.00
2022-12-15T07:48:20.131Z,952.00
2022-12-15T07:49:20.117Z,984.00
2022-12-15T07:50:20.027Z,1012.00
2022-12-15T07:51:20.451Z,1028.00
2022-12-15T07:52:20.006Z,1048.00
2022-12-15T07:53:19.939Z,1072.00
2022-12-15T07:54:19.903Z,1100.00
2022-12-15T07:55:37.252Z,1128.00
2022-12-15T07:56:19.952Z,1164.00
2022-12-15T07:57:19.815Z,1200.00
2022-12-15T07:58:19.832Z,1240.00
2022-12-15T07:59:19.882Z,1276.00
2022-12-15T08:00:19.714Z,1304.00
2022-12-15T08:01:19.781Z,1320.00
2022-12-15T08:02:19.843Z,1340.00
2022-12-15T08:03:19.726Z,1364.00
2022-12-15T08:04:19.618Z,1404.00
2022-12-15T08:05:19.565Z,1460.00
2022-12-15T08:06:19.564Z,1540.00
2022-12-15T08:07:19.504Z,1624.00
2022-12-15T08:08:19.461Z,1684.00
2022-12-15T08:09:19.443Z,1656.00
2022-12-15T08:10:19.403Z,1628.00
2022-12-15T08:11:19.378Z,1664.00
2022-12-15T08:12:19.373Z,1672.00
2022-12-15T08:13:44.971Z,1700.00
2022-12-15T08:14:19.781Z,1756.00
2022-12-15T08:15:19.254Z,1792.00
2022-12-15T08:16:19.253Z,1900.00
2022-12-15T08:17:19.187Z,2076.00
2022-12-15T08:18:19.172Z,2100.00
2022-12-15T08:19:19.124Z,2048.00
2022-12-15T08:20:19.091Z,2100.00
2022-12-15T08:21:19.071Z,2064.00
2022-12-15T08:22:19.033Z,2020.00
2022-12-15T08:23:19.003Z,2124.00
2022-12-15T08:24:19.014Z,2320.00
2022-12-15T08:25:18.940Z,2628.00
2022-12-15T08:28:12.461Z,3388.00
2022-12-15T08:30:12.182Z,3252.00
2022-12-15T08:31:12.145Z,3176.00
2022-12-15T08:32:12.135Z,3120.00
2022-12-15T08:33:12.096Z,2904.00
2022-12-15T08:34:12.058Z,3028.00
2022-12-15T08:35:38.986Z,3472.00
2022-12-15T08:36:20.828Z,3624.00
2022-12-15T08:38:05.973Z,3084.00
2022-12-15T08:39:05.475Z,2944.00
2022-12-15T08:40:05.293Z,3116.00
2022-12-15T08:41:14.151Z,2680.00
2022-12-15T08:42:58.696Z,2644.00
2022-12-15T08:43:58.688Z,2580.00
2022-12-15T08:44:58.596Z,3052.00
2022-12-15T08:45:58.699Z,3312.00
2022-12-15T08:46:58.421Z,3796.00
2022-12-15T08:47:58.387Z,3756.00
2022-12-15T08:48:58.380Z,3664.00
2022-12-15T08:49:58.338Z,3400.00
2022-12-15T08:50:58.301Z,3164.00
2022-12-15T08:51:58.304Z,3004.00
2022-12-15T08:53:29.010Z,3120.00
2022-12-15T08:53:58.206Z,2708.00
2022-12-15T08:54:58.237Z,2480.00
2022-12-15T08:55:58.164Z,2580.00
2022-12-15T08:56:58.127Z,2824.00
2022-12-15T08:57:58.094Z,3096.00
2022-12-15T08:58:58.066Z,3304.00
2022-12-15T08:59:58.037Z,3208.00
2022-12-15T09:00:58.050Z,3040.00
2022-12-15T09:01:58.196Z,2964.00
2022-12-15T09:02:57.979Z,2832.00
2022-12-15T09:03:58.052Z,2636.00
2022-12-15T09:04:57.897Z,2796.00
2022-12-15T09:05:57.859Z,2872.00
2022-12-15T09:06:57.829Z,2776.00
2022-12-15T09:10:52.679Z,4260.00
2022-12-15T09:11:51.081Z,4644.00
2022-12-15T09:12:51.061Z,3932.00
2022-12-15T09:13:51.050Z,3456.00
2022-12-15T09:14:50.997Z,3708.00
2022-12-15T09:16:51.106Z,3696.00
2022-12-15T09:17:50.932Z,3624.00
2022-12-15T09:18:50.884Z,3824.00
2022-12-15T09:19:50.857Z,3760.00
2022-12-15T09:20:50.821Z,4372.00
2022-12-15T09:21:50.792Z,4256.00
2022-12-15T09:22:50.768Z,4280.00
2022-12-15T09:23:50.731Z,4364.00
2022-12-15T09:24:50.729Z,3692.00
2022-12-15T09:25:50.671Z,3668.00
2022-12-15T09:26:50.651Z,3216.00
2022-12-15T09:27:50.616Z,3204.00
2022-12-15T09:28:51.015Z,3096.00
2022-12-15T09:29:50.558Z,3248.00
2022-12-15T09:30:50.571Z,3512.00
2022-12-15T09:31:50.501Z,3492.00
2022-12-15T09:32:50.475Z,3584.00
2022-12-15T09:33:50.452Z,3940.00
2022-12-15T09:34:51.038Z,4064.00
2022-12-15T09:35:50.418Z,4368.00
2022-12-15T09:36:50.364Z,4216.00
2022-12-15T09:37:52.017Z,4156.00
2022-12-15T09:38:50.303Z,4184.00
2022-12-15T09:39:50.315Z,4364.00
2022-12-15T09:40:50.241Z,4444.00
2022-12-15T09:41:50.263Z,4460.00
2022-12-15T09:42:59.760Z,4420.00
2022-12-15T09:43:50.682Z,4708.00
2022-12-15T09:44:50.131Z,4640.00
2022-12-15T09:45:50.130Z,4032.00
2022-12-15T09:46:50.605Z,4744.00
2022-12-15T09:47:50.042Z,5568.00
2022-12-15T09:48:50.047Z,5684.00
2022-12-15T09:49:49.985Z,5296.00
2022-12-15T09:50:49.964Z,4772.00
2022-12-15T09:51:49.927Z,4688.00
2022-12-15T09:52:49.936Z,4408.00
2022-12-15T09:53:55.052Z,4140.00
2022-12-15T09:54:49.909Z,4012.00
2022-12-15T09:55:49.863Z,4560.00
2022-12-15T09:56:50.241Z,5140.00
2022-12-15T09:57:49.772Z,5788.00
2022-12-15T09:58:50.665Z,6164.00
2022-12-15T09:59:49.736Z,7472.00
2022-12-15T10:00:52.541Z,6760.00
2022-12-15T10:01:49.735Z,6212.00
2022-12-15T10:02:49.998Z,7628.00
2022-12-15T10:03:49.766Z,8856.00
2022-12-15T10:04:50.659Z,7976.00
2022-12-15T10:06:07.110Z,6324.00
2022-12-15T10:06:50.565Z,6548.00
2022-12-15T10:07:50.342Z,8512.00
2022-12-15T10:09:49.435Z,7928.00
2022-12-15T10:10:49.511Z,8936.00
2022-12-15T10:11:50.619Z,8128.00
2022-12-15T10:13:50.265Z,9212.00
2022-12-15T10:14:49.893Z,9760.00
2022-12-15T10:16:50.204Z,10404.00
2022-12-15T10:17:50.369Z,10980.00
2022-12-15T10:19:50.177Z,11536.00
2022-12-15T10:20:49.117Z,12612.00
2022-12-15T10:21:50.367Z,11668.00
2022-12-15T10:22:50.506Z,8068.00
2022-12-15T10:25:51.292Z,6916.00
2022-12-15T10:26:48.963Z,7048.00
2022-12-15T10:27:49.202Z,7128.00
2022-12-15T10:28:51.222Z,7064.00
2022-12-15T10:29:50.863Z,6712.00
2022-12-15T10:30:48.915Z,6600.00
2022-12-15T10:31:48.816Z,6656.00
2022-12-15T10:32:51.655Z,6220.00
2022-12-15T10:33:50.129Z,5880.00
2022-12-15T10:34:48.768Z,5808.00
2022-12-15T10:35:48.719Z,5772.00
2022-12-15T10:36:48.687Z,5844.00
2022-12-15T10:37:48.689Z,5840.00
2022-12-15T10:38:50.412Z,5728.00
2022-12-15T10:39:50.177Z,5508.00
2022-12-15T10:40:50.834Z,5748.00
2022-12-15T10:41:48.655Z,5728.00
2022-12-15T10:42:48.525Z,5908.00
2022-12-15T10:43:48.494Z,6004.00
2022-12-15T10:44:50.496Z,6020.00
2022-12-15T10:45:48.517Z,5740.00
2022-12-15T10:48:41.980Z,5004.00
2022-12-15T10:49:41.764Z,4448.00
2022-12-15T10:50:41.749Z,4108.00
2022-12-15T10:51:41.728Z,4392.00
2022-12-15T10:52:41.880Z,4644.00
2022-12-15T10:53:41.679Z,4640.00
2022-12-15T10:54:41.613Z,4536.00
2022-12-15T10:55:41.614Z,4388.00
2022-12-15T10:56:41.588Z,4608.00
2022-12-15T10:57:41.528Z,4608.00
2022-12-15T10:58:41.507Z,4756.00
2022-12-15T10:59:41.482Z,4740.00
2022-12-15T11:00:41.460Z,4636.00
2022-12-15T11:01:41.634Z,4640.00
2022-12-15T11:02:41.618Z,4720.00
2022-12-15T11:03:41.987Z,4736.00
2022-12-15T11:04:41.406Z,4440.00
2022-12-15T11:05:41.303Z,4152.00
2022-12-15T11:06:41.372Z,4788.00
2022-12-15T11:07:41.265Z,5264.00
2022-12-15T11:08:41.232Z,5148.00
2022-12-15T11:09:41.235Z,4620.00
2022-12-15T11:10:41.174Z,4700.00
2022-12-15T11:11:45.178Z,4660.00
2022-12-15T11:12:41.123Z,4800.00
2022-12-15T11:13:41.524Z,4652.00
2022-12-15T11:14:41.066Z,3380.00
2022-12-15T11:15:41.075Z,3124.00
2022-12-15T11:16:41.007Z,3228.00
2022-12-15T11:17:40.984Z,3732.00
2022-12-15T11:18:40.958Z,3816.00
2022-12-15T11:19:40.943Z,3900.00
2022-12-15T11:20:40.902Z,4172.00
2022-12-15T11:21:40.904Z,4156.00
2022-12-15T11:22:40.848Z,4096.00
2022-12-15T11:23:46.694Z,4440.00
2022-12-15T11:24:40.787Z,4280.00
2022-12-15T11:25:40.775Z,3984.00
2022-12-15T11:26:40.732Z,4192.00
2022-12-15T11:27:40.700Z,3404.00
2022-12-15T11:28:40.677Z,3564.00
2022-12-15T11:29:40.651Z,4464.00
2022-12-15T11:30:40.632Z,4312.00
2022-12-15T11:31:40.627Z,3288.00
2022-12-15T11:32:40.575Z,3512.00
2022-12-15T11:33:40.571Z,4184.00
2022-12-15T11:34:40.512Z,4044.00
2022-12-15T11:35:40.534Z,4004.00
2022-12-15T11:36:40.461Z,3748.00
2022-12-15T11:37:40.431Z,3336.00
2022-12-15T11:38:40.424Z,3460.00
2022-12-15T11:39:40.371Z,3556.00
2022-12-15T11:40:40.357Z,3948.00
2022-12-15T11:41:40.410Z,4352.00
2022-12-15T11:42:40.294Z,4476.00
2022-12-15T11:43:40.295Z,4368.00
2022-12-15T11:44:40.247Z,4452.00
2022-12-15T11:45:40.367Z,4396.00
2022-12-15T11:46:40.185Z,4448.00
2022-12-15T11:47:40.163Z,4420.00
2022-12-15T11:48:40.132Z,4092.00
2022-12-15T11:49:41.487Z,3864.00
2022-12-15T11:50:40.072Z,3672.00
2022-12-15T11:51:40.096Z,3572.00
2022-12-15T11:52:40.022Z,3716.00
2022-12-15T11:53:39.987Z,4128.00
2022-12-15T11:54:39.994Z,4676.00
2022-12-15T11:55:41.633Z,5544.00
2022-12-15T11:56:39.913Z,4996.00
2022-12-15T11:57:39.889Z,4488.00
2022-12-15T11:58:39.857Z,4872.00
2022-12-15T11:59:39.821Z,4876.00
2022-12-15T12:00:39.801Z,5068.00
2022-12-15T12:01:40.112Z,5168.00
2022-12-15T12:02:39.848Z,4596.00
2022-12-15T12:03:39.711Z,4888.00
2022-12-15T12:04:39.725Z,3272.00
2022-12-15T12:05:39.711Z,4048.00
2022-12-15T12:06:39.646Z,3624.00
2022-12-15T12:08:39.584Z,3640.00
2022-12-15T12:09:39.558Z,3896.00
2022-12-15T12:10:39.639Z,3660.00
2022-12-15T12:11:39.492Z,2916.00
2022-12-15T12:12:39.475Z,3140.00
2022-12-15T12:13:39.457Z,2708.00
2022-12-15T12:14:39.419Z,2416.00
2022-12-15T12:15:39.469Z,2948.00
2022-12-15T12:16:39.384Z,2556.00
2022-12-15T12:17:39.375Z,2048.00
2022-12-15T12:18:39.368Z,1996.00
2022-12-15T12:19:39.293Z,1892.00
2022-12-15T12:20:39.285Z,2236.00
2022-12-15T12:21:39.226Z,2740.00
2022-12-15T12:22:39.197Z,2512.00
2022-12-15T12:23:39.189Z,2524.00
2022-12-15T12:24:39.144Z,2104.00
2022-12-15T12:25:39.142Z,2148.00
2022-12-15T12:26:39.085Z,2040.00
2022-12-15T12:27:39.070Z,2028.00
2022-12-15T12:28:39.039Z,1912.00
2022-12-15T12:29:39.025Z,1924.00
2022-12-15T12:30:38.972Z,1876.00
2022-12-15T12:31:38.953Z,1760.00
2022-12-15T12:32:38.916Z,1740.00
2022-12-15T12:33:38.895Z,1740.00
2022-12-15T12:34:38.862Z,1800.00
2022-12-15T12:35:38.915Z,1848.00
2022-12-15T12:36:38.809Z,1912.00
2022-12-15T12:37:38.786Z,2004.00
2022-12-15T12:38:38.756Z,1988.00
2022-12-15T12:39:38.719Z,1972.00
2022-12-15T12:40:38.699Z,1940.00
2022-12-15T12:41:38.667Z,1988.00
2022-12-15T12:42:38.645Z,2064.00
2022-12-15T12:43:38.618Z,2016.00
2022-12-15T12:44:38.583Z,2492.00
2022-12-15T12:45:38.591Z,2704.00
2022-12-15T12:46:38.555Z,2752.00
2022-12-15T12:47:38.504Z,2844.00
2022-12-15T12:48:38.472Z,2772.00
2022-12-15T12:49:38.453Z,2804.00
2022-12-15T12:50:38.414Z,2964.00
2022-12-15T12:51:38.426Z,2624.00
2022-12-15T12:52:38.360Z,2652.00
2022-12-15T12:53:38.326Z,2524.00
2022-12-15T12:54:38.302Z,2072.00
2022-12-15T12:55:38.302Z,2132.00
2022-12-15T12:56:38.251Z,2356.00
2022-12-15T12:57:38.243Z,2656.00
2022-12-15T12:58:38.197Z,2652.00
2022-12-15T12:59:38.169Z,2720.00
2022-12-15T13:00:38.268Z,2428.00
2022-12-15T13:01:38.493Z,2296.00
2022-12-15T13:02:38.293Z,2288.00
2022-12-15T13:03:38.061Z,2392.00
2022-12-15T13:04:38.026Z,2312.00
2022-12-15T13:05:38.005Z,2244.00
2022-12-15T13:06:37.975Z,2260.00
2022-12-15T13:07:37.976Z,2620.00
2022-12-15T13:08:37.921Z,3076.00
2022-12-15T13:09:37.881Z,2968.00
2022-12-15T13:10:37.860Z,3156.00